createdAt,value
2018-04-20T00:02:00.209Z,51.60
2018-04-20T00:04:27.676Z,50.10
2018-04-20T00:06:55.156Z,47.47
2018-04-20T00:09:23.397Z,48.10
2018-04-20T00:11:50.852Z,51.23
2018-04-20T00:14:18.332Z,50.83
2018-04-20T00:16:45.804Z,49.13
2018-04-20T00:19:14.040Z,51.47
2018-04-20T00:21:41.506Z,50.90
2018-04-20T00:24:09.046Z,47.07
2018-04-20T00:26:36.501Z,50.93
2018-04-20T00:29:03.959Z,48.63
2018-04-20T00:31:31.420Z,51.27
2018-04-20T00:33:58.892Z,49.87
2018-04-20T00:36:26.368Z,49.33
2018-04-20T00:38:53.820Z,49.97
2018-04-20T00:41:21.291Z,47.73
2018-04-20T00:43:49.532Z,49.57
2018-04-20T00:46:17.077Z,48.37
2018-04-20T00:48:44.544Z,48.60
2018-04-20T00:51:12.007Z,47.27
2018-04-20T00:53:51.338Z,48.77
2018-04-20T00:56:18.802Z,46.73
2018-04-20T00:58:46.270Z,48.17
2018-04-20T01:01:13.752Z,47.10
2018-04-20T01:03:41.989Z,48.90
2018-04-20T01:06:09.476Z,49.10
2018-04-20T01:08:38.628Z,50.13
2018-04-20T01:11:06.716Z,49.20
2018-04-20T01:13:34.180Z,49.00
2018-04-20T01:16:01.640Z,45.83
2018-04-20T01:18:29.120Z,48.03
2018-04-20T01:20:57.349Z,49.00
2018-04-20T01:23:24.830Z,49.40
2018-04-20T01:25:52.292Z,49.70
2018-04-20T01:28:19.752Z,48.83
2018-04-20T01:30:47.993Z,50.53
2018-04-20T01:33:15.468Z,45.83
2018-04-20T01:35:42.950Z,50.87
2018-04-20T01:38:11.186Z,51.00
2018-04-20T01:40:38.649Z,52.07
2018-04-20T01:43:06.629Z,54.03
2018-04-20T01:45:34.105Z,53.57
2018-04-20T01:48:02.348Z,54.00
2018-04-20T01:50:29.816Z,52.60
2018-04-20T01:52:57.285Z,52.90
2018-04-20T01:55:25.815Z,53.87
2018-04-20T01:57:53.285Z,54.07
2018-04-20T02:00:20.768Z,51.27
2018-04-20T02:02:48.233Z,55.80
2018-04-20T02:05:16.612Z,55.37
2018-04-20T02:07:44.894Z,56.10
2018-04-20T02:10:13.125Z,58.20
2018-04-20T02:12:40.589Z,56.80
2018-04-20T02:15:08.072Z,61.70
2018-04-20T02:17:35.528Z,59.17
2018-04-20T02:20:03.403Z,61.60
2018-04-20T02:22:31.651Z,57.13
2018-04-20T02:24:59.117Z,60.80
2018-04-20T02:27:26.609Z,60.40
2018-04-20T02:29:54.839Z,60.13
2018-04-20T02:32:22.306Z,58.20
2018-04-20T02:34:49.792Z,64.77
2018-04-20T02:37:18.016Z,59.33
2018-04-20T02:39:46.413Z,62.87
2018-04-20T02:42:13.906Z,60.53
2018-04-20T02:44:42.143Z,62.70
2018-04-20T02:47:09.621Z,63.27
2018-04-20T02:49:37.082Z,63.97
2018-04-20T02:52:05.351Z,59.87
2018-04-20T02:54:32.827Z,60.07
2018-04-20T02:57:01.060Z,62.23
2018-04-20T02:59:28.537Z,62.57
2018-04-20T03:01:56.043Z,58.60
2018-04-20T03:04:23.507Z,59.87
2018-04-20T03:06:50.986Z,61.47
2018-04-20T03:09:18.473Z,61.50
2018-04-20T03:11:45.937Z,62.07
2018-04-20T03:14:14.176Z,60.50
2018-04-20T03:16:41.641Z,60.07
2018-04-20T03:19:09.147Z,61.23
2018-04-20T03:21:36.614Z,58.87
2018-04-20T03:24:05.001Z,57.17
2018-04-20T03:26:32.465Z,56.57
2018-04-20T03:28:59.942Z,56.53
2018-04-20T03:31:27.399Z,56.57
2018-04-20T03:33:54.864Z,53.53
2018-04-20T03:36:22.341Z,57.47
2018-04-20T03:38:50.588Z,58.03
2018-04-20T03:41:18.826Z,57.37
2018-04-20T03:43:47.049Z,57.80
2018-04-20T03:46:14.524Z,59.23
2018-04-20T03:48:42.748Z,57.90
2018-04-20T03:51:10.217Z,59.00
2018-04-20T03:53:37.693Z,58.63
2018-04-20T03:56:05.162Z,55.90
2018-04-20T03:58:32.638Z,55.30
2018-04-20T04:01:00.885Z,57.47
2018-04-20T04:03:28.373Z,53.93
2018-04-20T04:05:56.509Z,58.40
2018-04-20T04:08:23.988Z,54.73
2018-04-20T04:10:51.458Z,55.10
2018-04-20T04:13:19.690Z,57.90
2018-04-20T04:15:47.164Z,59.00
2018-04-20T04:18:26.556Z,58.93
2018-04-20T04:21:06.826Z,61.67
2018-04-20T04:23:46.146Z,57.60
2018-04-20T04:26:25.543Z,60.40
2018-04-20T04:28:53.000Z,58.63
2018-04-20T04:31:21.312Z,58.80
2018-04-20T04:33:48.871Z,56.20
2018-04-20T04:36:16.349Z,57.77
2018-04-20T04:38:43.832Z,57.40
2018-04-20T04:41:11.300Z,57.47
2018-04-20T04:43:38.759Z,60.07
2018-04-20T04:46:06.234Z,60.93
2018-04-20T04:48:34.477Z,57.60
2018-04-20T04:51:01.944Z,61.37
2018-04-20T04:53:29.411Z,58.40
2018-04-20T04:55:57.640Z,61.07
2018-04-20T04:58:25.123Z,56.63
2018-04-20T05:00:52.600Z,62.50
2018-04-20T05:03:20.828Z,58.00
2018-04-20T05:05:48.307Z,58.33
2018-04-20T05:08:15.804Z,58.63
2018-04-20T05:10:43.264Z,57.63
2018-04-20T05:13:10.746Z,57.97
2018-04-20T05:15:38.211Z,58.83
2018-04-20T05:18:05.696Z,57.83
2018-04-20T05:20:33.180Z,55.83
2018-04-20T05:23:01.406Z,56.70
2018-04-20T05:25:28.902Z,54.97
2018-04-20T05:27:56.368Z,54.27
2018-04-20T05:30:24.672Z,55.27
2018-04-20T05:32:52.240Z,55.50
2018-04-20T05:35:20.512Z,54.60
2018-04-20T05:37:48.002Z,55.53
2018-04-20T05:40:15.473Z,54.97
2018-04-20T05:42:42.937Z,54.47
2018-04-20T05:45:11.185Z,55.03
2018-04-20T05:47:38.712Z,54.47
2018-04-20T05:50:06.205Z,56.00
2018-04-20T05:52:33.680Z,53.20
2018-04-20T05:55:01.146Z,52.57
2018-04-20T05:57:29.382Z,52.70
2018-04-20T05:59:56.874Z,52.90
2018-04-20T06:02:24.346Z,52.47
2018-04-20T06:04:52.580Z,52.20
2018-04-20T06:07:20.056Z,52.77
2018-04-20T06:09:47.549Z,49.70
2018-04-20T06:12:15.029Z,49.13
2018-04-20T06:14:42.498Z,49.30
2018-04-20T06:17:09.969Z,46.00
2018-04-20T06:19:37.457Z,45.00
2018-04-20T06:22:06.176Z,43.23
2018-04-20T06:24:33.794Z,42.47
2018-04-20T06:27:01.277Z,40.20
2018-04-20T06:29:28.756Z,42.60
2018-04-20T06:31:56.248Z,41.57
2018-04-20T06:34:23.739Z,38.50
2018-04-20T06:36:51.249Z,36.60
2018-04-20T06:39:18.764Z,38.17
2018-04-20T06:41:47.125Z,37.77
2018-04-20T06:44:14.533Z,34.40
2018-04-20T06:46:42.021Z,35.20
2018-04-20T06:49:09.502Z,40.10
2018-04-20T06:51:37.726Z,39.07
2018-04-20T06:54:05.255Z,40.67
2018-04-20T06:56:33.611Z,39.80
2018-04-20T06:59:01.047Z,40.07
2018-04-20T07:01:28.508Z,40.03
2018-04-20T07:03:55.992Z,40.10
2018-04-20T07:06:23.467Z,40.60
2018-04-20T07:08:50.941Z,40.70
2018-04-20T07:11:18.418Z,41.00
2018-04-20T07:13:46.723Z,42.10
2018-04-20T07:16:15.156Z,41.43
2018-04-20T07:18:42.609Z,40.13
2018-04-20T07:21:10.136Z,38.60
2018-04-20T07:23:37.647Z,38.97
2018-04-20T07:26:06.102Z,38.10
2018-04-20T07:28:33.571Z,36.23
2018-04-20T07:31:01.061Z,34.50
2018-04-20T07:33:28.521Z,32.43
2018-04-20T07:35:56.876Z,33.27
2018-04-20T07:38:24.479Z,34.40
2018-04-20T07:40:51.954Z,33.50
2018-04-20T07:43:19.413Z,33.33
2018-04-20T07:45:46.880Z,37.60
2018-04-20T07:48:14.336Z,35.10
2018-04-20T07:50:41.882Z,30.97
2018-04-20T07:53:09.345Z,33.10
2018-04-20T07:55:36.831Z,35.53
2018-04-20T07:58:04.308Z,37.17
2018-04-20T08:00:31.765Z,33.80
2018-04-20T08:02:59.232Z,34.43
2018-04-20T08:05:27.465Z,34.10
2018-04-20T08:07:54.934Z,34.27
2018-04-20T08:10:22.393Z,33.57
2018-04-20T08:12:49.865Z,32.83
2018-04-20T08:15:17.329Z,30.87
2018-04-20T08:17:45.588Z,30.13
2018-04-20T08:20:13.060Z,25.63
2018-04-20T08:22:41.289Z,28.30
2018-04-20T08:25:08.748Z,30.47
2018-04-20T08:27:36.293Z,31.77
2018-04-20T08:30:03.752Z,32.53
2018-04-20T08:32:31.208Z,31.17
2018-04-20T08:34:58.677Z,28.70
2018-04-20T08:37:26.897Z,29.10
2018-04-20T08:39:55.128Z,28.50
2018-04-20T08:42:22.624Z,29.20
2018-04-20T08:44:50.081Z,25.77
2018-04-20T08:47:17.535Z,24.97
2018-04-20T08:49:45.006Z,25.63
2018-04-20T08:52:13.266Z,26.90
2018-04-20T08:54:40.816Z,27.40
2018-04-20T08:57:09.789Z,26.33
2018-04-20T08:59:37.255Z,26.13
2018-04-20T09:02:04.729Z,26.20
2018-04-20T09:04:32.188Z,26.90
2018-04-20T09:06:59.668Z,26.73
2018-04-20T09:09:28.012Z,26.57
2018-04-20T09:11:55.477Z,25.90
2018-04-20T09:14:22.944Z,26.43
2018-04-20T09:16:51.192Z,26.73
2018-04-20T09:19:18.667Z,26.37
2018-04-20T09:21:46.136Z,24.67
2018-04-20T09:24:14.360Z,22.53
2018-04-20T09:26:41.832Z,21.90
2018-04-20T09:29:09.300Z,21.33
2018-04-20T09:31:36.774Z,21.57
2018-04-20T09:34:04.249Z,22.27
2018-04-20T09:36:32.472Z,25.60
2018-04-20T09:38:59.931Z,25.90
2018-04-20T09:41:27.396Z,26.73
2018-04-20T09:43:54.868Z,26.30
2018-04-20T09:46:22.329Z,24.53
2018-04-20T09:48:49.811Z,28.83
2018-04-20T09:51:18.045Z,25.90
2018-04-20T09:53:46.294Z,26.20
2018-04-20T09:56:13.776Z,24.70
2018-04-20T09:58:41.224Z,16.30
2018-04-20T10:01:09.472Z,18.47
2018-04-20T10:03:51.825Z,14.77
2018-04-20T10:06:19.308Z,12.90
2018-04-20T10:08:47.538Z,10.90
2018-04-20T10:11:15.003Z,10.03
2018-04-20T10:13:42.473Z,9.50
2018-04-20T10:16:09.945Z,9.30
2018-04-20T10:18:38.180Z,10.53
2018-04-20T10:21:05.637Z,8.90
2018-04-20T10:23:33.095Z,9.33
2018-04-20T10:26:00.573Z,10.60
2018-04-20T10:28:28.024Z,8.77
2018-04-20T10:30:55.501Z,10.00
2018-04-20T10:33:23.724Z,10.83
2018-04-20T10:35:51.224Z,10.50
2018-04-20T10:38:18.657Z,10.03
2018-04-20T10:40:46.148Z,11.60
2018-04-20T10:43:13.597Z,11.53
2018-04-20T10:45:41.068Z,9.30
2018-04-20T10:48:09.293Z,9.43
2018-04-20T10:50:36.760Z,7.50
2018-04-20T10:53:04.229Z,10.80
2018-04-20T10:55:31.688Z,11.60
2018-04-20T10:57:59.157Z,11.00
2018-04-20T11:00:27.381Z,14.50
2018-04-20T11:02:54.879Z,12.47
2018-04-20T11:05:22.316Z,16.50
2018-04-20T11:07:49.793Z,16.13
2018-04-20T11:10:17.265Z,13.63
2018-04-20T11:12:45.492Z,13.70
2018-04-20T11:15:12.965Z,13.10
2018-04-20T11:17:40.434Z,12.90
2018-04-20T11:20:07.914Z,14.47
2018-04-20T11:22:36.150Z,13.40
2018-04-20T11:25:03.613Z,11.47
2018-04-20T11:27:31.096Z,12.10
2018-04-20T11:29:59.329Z,9.60
2018-04-20T11:32:26.788Z,8.93
2018-04-20T11:34:54.271Z,9.00
2018-04-20T11:37:21.725Z,9.73
2018-04-20T11:39:49.179Z,10.83
2018-04-20T11:42:16.652Z,10.20
2018-04-20T11:44:45.770Z,8.63
2018-04-20T11:47:13.986Z,7.70
2018-04-20T11:49:41.446Z,7.30
2018-04-20T11:52:08.912Z,6.60
2018-04-20T11:54:36.374Z,6.67
2018-04-20T11:57:03.837Z,11.00
2018-04-20T11:59:31.300Z,11.83
2018-04-20T12:01:58.764Z,14.23
2018-04-20T12:04:26.992Z,12.40
2018-04-20T12:06:54.476Z,12.57
2018-04-20T12:09:21.947Z,12.07
2018-04-20T12:11:49.404Z,9.67
2018-04-20T12:14:17.628Z,13.47
2018-04-20T12:16:45.101Z,11.87
2018-04-20T12:19:12.573Z,10.77
2018-04-20T12:21:40.047Z,12.60
2018-04-20T12:24:09.113Z,13.87
2018-04-20T12:26:37.076Z,14.30
2018-04-20T12:29:04.613Z,12.23
2018-04-20T12:31:32.090Z,10.80
2018-04-20T12:33:59.548Z,13.00
2018-04-20T12:36:27.028Z,12.20
2018-04-20T12:38:54.505Z,10.07
2018-04-20T12:41:22.786Z,6.90
2018-04-20T12:43:50.213Z,6.10
2018-04-20T12:46:17.683Z,6.77
2018-04-20T12:48:45.144Z,8.10
2018-04-20T12:51:13.367Z,7.80
2018-04-20T12:53:40.830Z,6.60
2018-04-20T12:56:08.307Z,6.43
2018-04-20T12:58:35.772Z,6.03
2018-04-20T13:01:03.228Z,5.40
2018-04-20T13:03:30.702Z,5.47
2018-04-20T13:05:58.160Z,4.83
2018-04-20T13:08:26.380Z,5.00
2018-04-20T13:10:53.849Z,5.80
2018-04-20T13:13:21.333Z,7.60
2018-04-20T13:15:48.812Z,9.97
2018-04-20T13:18:17.487Z,9.90
2018-04-20T13:20:44.944Z,12.03
2018-04-20T13:23:12.449Z,11.07
2018-04-20T13:25:39.915Z,12.47
2018-04-20T13:28:07.395Z,14.43
2018-04-20T13:30:34.858Z,11.10
2018-04-20T13:33:02.322Z,9.03
2018-04-20T13:35:29.805Z,11.20
2018-04-20T13:37:58.054Z,11.73
2018-04-20T13:40:26.227Z,10.57
2018-04-20T13:42:53.700Z,8.73
2018-04-20T13:45:21.931Z,8.50
2018-04-20T13:47:49.408Z,10.80
2018-04-20T13:50:16.866Z,10.00
2018-04-20T13:52:44.325Z,10.50
2018-04-20T13:55:11.793Z,10.80
2018-04-20T13:57:39.253Z,8.97
2018-04-20T14:00:07.498Z,9.87
2018-04-20T14:02:34.962Z,10.70
2018-04-20T14:05:02.420Z,13.03
2018-04-20T14:07:29.893Z,11.37
2018-04-20T14:09:58.148Z,18.07
2018-04-20T14:12:25.616Z,15.73
2018-04-20T14:14:53.086Z,14.13
2018-04-20T14:17:20.546Z,11.97
2018-04-20T14:19:48.789Z,10.70
2018-04-20T14:22:16.257Z,12.07
2018-04-20T14:24:43.725Z,8.03
2018-04-20T14:27:11.188Z,9.37
2018-04-20T14:29:39.428Z,8.50
2018-04-20T14:32:06.883Z,8.70
2018-04-20T14:34:34.377Z,8.57
2018-04-20T14:37:01.829Z,8.03
2018-04-20T14:39:29.285Z,8.37
2018-04-20T14:41:56.763Z,8.13
2018-04-20T14:44:25.001Z,7.60
2018-04-20T14:46:52.452Z,6.60
2018-04-20T14:49:19.921Z,6.53
2018-04-20T14:51:47.388Z,6.00
2018-04-20T14:54:14.832Z,5.43
2018-04-20T14:56:42.296Z,4.73
2018-04-20T14:59:09.744Z,4.80
2018-04-20T15:01:37.212Z,4.33
2018-04-20T15:04:04.673Z,4.33
2018-04-20T15:06:32.141Z,4.10
2018-04-20T15:09:00.377Z,4.27
2018-04-20T15:11:27.833Z,5.47
2018-04-20T15:13:55.335Z,4.53
2018-04-20T15:16:23.561Z,4.50
2018-04-20T15:18:51.100Z,4.80
2018-04-20T15:21:18.492Z,5.00
2018-04-20T15:23:45.953Z,4.87
2018-04-20T15:26:13.417Z,5.03
2018-04-20T15:28:40.886Z,6.20
2018-04-20T15:31:09.124Z,6.23
2018-04-20T15:33:37.096Z,5.20
2018-04-20T15:36:04.613Z,5.33
2018-04-20T15:38:32.032Z,7.63
2018-04-20T15:40:59.501Z,9.83
2018-04-20T15:43:27.725Z,8.60
2018-04-20T15:45:55.188Z,9.83
2018-04-20T15:48:22.666Z,9.70
2018-04-20T15:50:50.124Z,12.57
2018-04-20T15:53:17.588Z,10.43
2018-04-20T15:55:45.060Z,11.87
2018-04-20T15:58:13.288Z,13.57
2018-04-20T16:00:40.773Z,14.20
2018-04-20T16:03:08.228Z,14.83
2018-04-20T16:05:35.700Z,15.20
2018-04-20T16:08:03.953Z,21.03
2018-04-20T16:10:31.396Z,17.97
2018-04-20T16:12:58.880Z,20.17
2018-04-20T16:15:26.336Z,19.23
2018-04-20T16:17:53.814Z,18.57
2018-04-20T16:20:22.049Z,21.83
2018-04-20T16:22:49.505Z,22.27
2018-04-20T16:25:16.980Z,22.17
2018-04-20T16:27:44.432Z,29.53
2018-04-20T16:30:11.900Z,31.10
2018-04-20T16:32:40.152Z,32.20
2018-04-20T16:35:12.117Z,31.10
2018-04-20T16:37:39.600Z,34.30
2018-04-20T16:40:07.861Z,32.87
2018-04-20T16:42:35.328Z,35.23
2018-04-20T16:45:02.800Z,35.10
2018-04-20T16:47:31.028Z,34.67
2018-04-20T16:49:58.504Z,36.30
2018-04-20T16:52:25.973Z,36.40
2018-04-20T16:54:54.197Z,34.23
2018-04-20T16:57:21.670Z,36.83
2018-04-20T16:59:49.133Z,38.50
2018-04-20T17:02:17.112Z,39.53
2018-04-20T17:04:45.588Z,38.07
2018-04-20T17:07:13.088Z,40.40
2018-04-20T17:09:40.513Z,40.77
2018-04-20T17:12:07.988Z,46.10
2018-04-20T17:14:36.223Z,43.93
2018-04-20T17:17:03.690Z,44.10
2018-04-20T17:19:31.158Z,40.93
2018-04-20T17:21:58.635Z,41.47
2018-04-20T17:24:26.861Z,43.63
2018-04-20T17:26:54.333Z,44.23
2018-04-20T17:29:21.796Z,46.20
2018-04-20T17:31:49.261Z,46.07
2018-04-20T17:34:16.733Z,47.37
2018-04-20T17:36:44.954Z,48.30
2018-04-20T17:39:12.427Z,49.10
2018-04-20T17:41:39.905Z,50.63
2018-04-20T17:44:07.466Z,52.27
2018-04-20T17:46:34.924Z,50.63
2018-04-20T17:49:02.501Z,50.40
2018-04-20T17:51:30.732Z,52.23
2018-04-20T17:53:58.201Z,47.40
2018-04-20T17:56:25.723Z,47.13
2018-04-20T17:58:53.175Z,44.03
2018-04-20T18:01:20.645Z,44.23
2018-04-20T18:03:48.149Z,47.23
2018-04-20T18:06:15.605Z,43.70
2018-04-20T18:08:43.085Z,47.03
2018-04-20T18:11:10.560Z,48.70
2018-04-20T18:13:38.020Z,47.57
2018-04-20T18:16:06.452Z,49.50
2018-04-20T18:18:33.891Z,49.90
2018-04-20T18:21:01.360Z,50.97
2018-04-20T18:23:28.839Z,53.17
2018-04-20T18:25:57.061Z,54.50
2018-04-20T18:28:24.516Z,52.47
2018-04-20T18:30:51.993Z,52.27
2018-04-20T18:33:19.465Z,53.27
2018-04-20T18:35:46.930Z,54.87
2018-04-20T18:38:15.158Z,56.03
2018-04-20T18:40:42.633Z,52.87
2018-04-20T18:43:10.117Z,54.93
2018-04-20T18:45:37.574Z,56.10
2018-04-20T18:48:05.555Z,57.50
2018-04-20T18:50:33.769Z,58.10
2018-04-20T18:53:01.227Z,63.80
2018-04-20T18:55:28.698Z,61.00
2018-04-20T18:57:56.164Z,65.90
2018-04-20T19:00:23.632Z,68.17
2018-04-20T19:02:51.108Z,66.00
2018-04-20T19:05:19.384Z,67.50
2018-04-20T19:07:47.620Z,67.23
2018-04-20T19:10:15.077Z,70.50
2018-04-20T19:12:42.543Z,69.90
2018-04-20T19:15:10.008Z,74.03
2018-04-20T19:17:38.428Z,75.90
2018-04-20T19:20:05.884Z,78.50
2018-04-20T19:22:33.346Z,79.93
2018-04-20T19:25:00.831Z,84.03
2018-04-20T19:27:28.302Z,84.17
2018-04-20T19:29:55.785Z,88.07
2018-04-20T19:32:23.257Z,86.30
2018-04-20T19:34:51.500Z,80.80
2018-04-20T19:37:18.964Z,85.83
2018-04-20T19:39:46.440Z,88.37
2018-04-20T19:42:14.683Z,82.40
2018-04-20T19:44:42.252Z,82.57
2018-04-20T19:47:09.726Z,90.30
2018-04-20T19:49:38.013Z,85.93
2018-04-20T19:52:06.241Z,86.33
2018-04-20T19:54:33.720Z,88.10
2018-04-20T19:57:01.178Z,85.47
2018-04-20T19:59:28.639Z,90.93
2018-04-20T20:01:56.144Z,92.17
2018-04-20T20:04:23.608Z,90.63
2018-04-20T20:06:51.073Z,93.23
2018-04-20T20:09:18.588Z,89.40
2018-04-20T20:11:46.853Z,89.50
2018-04-20T20:14:14.301Z,94.80
2018-04-20T20:16:41.782Z,100.70
2018-04-20T20:19:09.361Z,96.37
2018-04-20T20:21:36.830Z,94.67
2018-04-20T20:24:04.286Z,87.83
2018-04-20T20:26:31.764Z,95.20
2018-04-20T20:28:59.226Z,96.63
2018-04-20T20:31:26.714Z,100.57
2018-04-20T20:33:54.944Z,99.70
2018-04-20T20:36:22.479Z,100.90
2018-04-20T20:38:49.959Z,101.20
2018-04-20T20:41:17.436Z,101.50
2018-04-20T20:43:44.937Z,106.87
2018-04-20T20:46:12.407Z,110.47
2018-04-20T20:48:39.877Z,104.67
2018-04-20T20:51:07.340Z,103.90
2018-04-20T20:53:34.817Z,105.20
2018-04-20T20:56:02.296Z,105.27
2018-04-20T20:58:30.532Z,107.23
2018-04-20T21:00:58.001Z,106.10
2018-04-20T21:03:26.370Z,108.00
2018-04-20T21:05:53.832Z,110.57
2018-04-20T21:08:21.301Z,119.10
2018-04-20T21:10:48.770Z,115.00
2018-04-20T21:13:16.248Z,114.00
2018-04-20T21:15:44.994Z,111.87
2018-04-20T21:18:12.477Z,121.17
2018-04-20T21:20:40.707Z,124.13
2018-04-20T21:23:08.181Z,116.10
2018-04-20T21:25:35.661Z,120.27
2018-04-20T21:28:03.142Z,115.20
2018-04-20T21:30:30.645Z,117.47
2018-04-20T21:32:58.128Z,118.50
2018-04-20T21:35:25.604Z,117.90
2018-04-20T21:37:53.860Z,119.33
2018-04-20T21:40:21.330Z,112.70
2018-04-20T21:42:49.560Z,118.53
2018-04-20T21:45:18.168Z,118.87
2018-04-20T21:47:46.313Z,124.60
2018-04-20T21:50:14.582Z,120.27
2018-04-20T21:52:42.062Z,116.03
2018-04-20T21:55:09.562Z,119.53
2018-04-20T21:57:36.994Z,114.73
2018-04-20T22:00:05.010Z,122.67
2018-04-20T22:02:32.480Z,122.03
2018-04-20T22:04:59.956Z,116.37
2018-04-20T22:07:27.463Z,116.30
2018-04-20T22:09:54.918Z,114.17
2018-04-20T22:12:23.161Z,117.27
2018-04-20T22:14:50.634Z,119.83
2018-04-20T22:17:18.109Z,115.70
2018-04-20T22:19:45.572Z,114.43
2018-04-20T22:22:13.037Z,112.60
2018-04-20T22:24:40.525Z,120.17
2018-04-20T22:27:07.991Z,113.83
2018-04-20T22:29:35.465Z,114.67
2018-04-20T22:32:02.957Z,109.80
2018-04-20T22:34:30.422Z,115.93
2018-04-20T22:36:57.889Z,105.97
2018-04-20T22:39:26.284Z,109.67
2018-04-20T22:41:53.757Z,111.67
2018-04-20T22:44:21.217Z,109.23
2018-04-20T22:46:48.689Z,107.70
2018-04-20T22:49:16.154Z,114.90
2018-04-20T22:51:44.396Z,107.07
2018-04-20T22:54:12.023Z,109.07
2018-04-20T22:56:39.496Z,105.13
2018-04-20T22:59:06.976Z,109.40
2018-04-20T23:01:34.452Z,107.60
2018-04-20T23:04:01.913Z,107.60
2018-04-20T23:06:29.372Z,104.57
2018-04-20T23:08:58.413Z,106.93
2018-04-20T23:11:26.578Z,103.50
2018-04-20T23:13:54.048Z,111.73
2018-04-20T23:16:21.524Z,103.77
2018-04-20T23:18:49.009Z,105.50
2018-04-20T23:21:17.267Z,108.10
2018-04-20T23:23:44.732Z,105.50
2018-04-20T23:26:12.328Z,106.40
2018-04-20T23:28:39.802Z,109.07
2018-04-20T23:31:07.271Z,106.57
2018-04-20T23:33:34.732Z,108.20
2018-04-20T23:36:02.270Z,109.20
2018-04-20T23:38:29.727Z,106.70
2018-04-20T23:40:57.200Z,104.87
2018-04-20T23:43:24.680Z,107.47
2018-04-20T23:45:52.148Z,111.37
2018-04-20T23:48:19.625Z,107.20
2018-04-20T23:50:47.868Z,109.07
2018-04-20T23:53:15.332Z,116.00
2018-04-20T23:55:42.805Z,110.03
2018-04-20T23:58:11.057Z,116.20
